Terminal Aerodrome Forecast
Issued by NWS

Home | Current Version | Previous Version | Text Only | Print | Product List | Glossary On
Versions: 1 2 3 4 5 6 7 8 9 10 11 12 13 14 15
264
FTUS43 KOAX 102320
TAFCDR
TAF
KCDR 102320Z 1100/1124 31014G26KT P6SM BKN150
     FM110200 26008KT P6SM BKN150
     FM111500 28010G20KT P6SM BKN150=

USA.gov is the U.S. government's official web portal to all federal, state and local government web resources and services.